createdAt,value
2023-02-27T00:02:31.610Z,67.29
2023-02-27T00:05:58.777Z,67.35
2023-02-27T00:09:27.531Z,67.32
2023-02-27T00:12:54.680Z,67.38
2023-02-27T00:16:22.234Z,67.46
2023-02-27T00:19:49.608Z,67.26
2023-02-27T00:23:17.116Z,67.36
2023-02-27T00:26:44.239Z,67.43
2023-02-27T00:30:16.383Z,67.33
2023-02-27T00:33:43.507Z,67.40
2023-02-27T00:37:11.138Z,67.52
2023-02-27T00:40:38.741Z,67.34
2023-02-27T00:44:06.117Z,67.60
2023-02-27T00:47:33.405Z,67.37
2023-02-27T00:51:01.110Z,67.60
2023-02-27T00:54:31.788Z,67.49
2023-02-27T00:57:59.285Z,67.73
2023-02-27T01:01:27.194Z,67.72
2023-02-27T01:04:57.071Z,67.79
2023-02-27T01:08:24.557Z,67.89
2023-02-27T01:11:51.876Z,68.07
2023-02-27T01:15:19.234Z,67.91
2023-02-27T01:18:46.859Z,68.23
2023-02-27T01:22:16.681Z,68.23
2023-02-27T01:25:44.242Z,68.32
2023-02-27T01:29:31.562Z,68.43
2023-02-27T01:33:00.137Z,68.54
2023-02-27T01:36:29.207Z,68.37
2023-02-27T01:39:56.803Z,68.20
2023-02-27T01:44:31.047Z,68.16
2023-02-27T01:48:04.198Z,68.01
2023-02-27T01:51:39.356Z,68.05
2023-02-27T01:55:08.721Z,68.09
2023-02-27T01:58:36.004Z,68.03
2023-02-27T02:02:06.547Z,68.13
2023-02-27T02:05:34.819Z,68.02
2023-02-27T02:09:03.354Z,68.18
2023-02-27T02:12:34.867Z,68.19
2023-02-27T02:16:16.096Z,68.21
2023-02-27T02:20:28.787Z,68.28
2023-02-27T02:24:20.048Z,68.38
2023-02-27T02:28:01.798Z,68.39
2023-02-27T02:32:00.635Z,68.51
2023-02-27T02:36:12.477Z,68.50
2023-02-27T02:40:17.810Z,68.72
2023-02-27T02:43:55.954Z,68.71
2023-02-27T02:47:32.640Z,68.82
2023-02-27T02:51:06.149Z,68.73
2023-02-27T02:54:41.167Z,68.99
2023-02-27T02:58:16.549Z,68.89
2023-02-27T03:01:49.784Z,68.86
2023-02-27T03:05:24.212Z,68.82
2023-02-27T03:08:58.911Z,68.94
2023-02-27T03:12:29.897Z,68.83
2023-02-27T03:16:02.570Z,68.76
2023-02-27T03:19:34.171Z,68.83
2023-02-27T03:23:06.170Z,68.93
2023-02-27T03:26:37.723Z,68.97
2023-02-27T03:30:10.698Z,68.89
2023-02-27T03:33:40.193Z,69.01
2023-02-27T03:37:14.348Z,69.18
2023-02-27T03:40:47.720Z,69.11
2023-02-27T03:44:25.404Z,68.91
2023-02-27T03:47:52.918Z,69.05
2023-02-27T03:51:22.237Z,69.02
2023-02-27T03:54:54.604Z,69.06
2023-02-27T03:58:21.127Z,68.88
2023-02-27T04:01:48.535Z,69.06
2023-02-27T04:05:15.150Z,69.05
2023-02-27T04:09:01.682Z,69.19
2023-02-27T04:12:46.055Z,69.57
2023-02-27T04:16:46.195Z,69.44
2023-02-27T04:20:24.349Z,69.38
2023-02-27T04:23:58.966Z,69.29
2023-02-27T04:27:33.597Z,69.39
2023-02-27T04:31:13.430Z,69.45
2023-02-27T04:34:44.965Z,69.28
2023-02-27T04:38:21.117Z,69.41
2023-02-27T04:41:51.900Z,69.41
2023-02-27T04:45:23.467Z,69.34
2023-02-27T04:48:55.611Z,69.51
2023-02-27T04:52:26.661Z,69.24
2023-02-27T04:55:57.830Z,69.37
2023-02-27T04:59:30.304Z,69.34
2023-02-27T05:03:01.808Z,69.58
2023-02-27T05:06:32.950Z,69.63
2023-02-27T05:10:04.533Z,69.60
2023-02-27T05:13:36.017Z,69.68
2023-02-27T05:17:09.698Z,69.80
2023-02-27T05:20:44.319Z,69.80
2023-02-27T05:24:19.965Z,69.83
2023-02-27T05:27:50.683Z,69.76
2023-02-27T05:31:25.528Z,69.87
2023-02-27T05:34:58.706Z,69.94
2023-02-27T05:38:31.771Z,70.19
2023-02-27T05:42:03.401Z,70.30
2023-02-27T05:45:34.965Z,70.29
2023-02-27T05:49:07.514Z,70.12
2023-02-27T05:52:36.178Z,70.16
2023-02-27T05:56:06.640Z,70.14
2023-02-27T05:59:39.222Z,70.05
2023-02-27T06:03:06.647Z,69.96
2023-02-27T06:06:34.034Z,70.09
2023-02-27T06:10:00.905Z,70.07
2023-02-27T06:13:28.045Z,69.94
2023-02-27T06:16:55.224Z,70.13
2023-02-27T06:20:22.253Z,70.14
2023-02-27T06:23:48.806Z,70.21
2023-02-27T06:27:15.753Z,70.18
2023-02-27T06:30:42.998Z,70.21
2023-02-27T06:34:11.254Z,70.15
2023-02-27T06:37:38.532Z,70.12
2023-02-27T06:41:05.601Z,70.32
2023-02-27T06:44:32.177Z,70.30
2023-02-27T06:47:59.711Z,70.39
2023-02-27T06:51:26.747Z,70.42
2023-02-27T06:54:54.899Z,70.64
2023-02-27T06:58:21.896Z,70.70
2023-02-27T07:01:51.631Z,70.71
2023-02-27T07:05:18.471Z,70.75
2023-02-27T07:09:00.917Z,70.84
2023-02-27T07:12:32.906Z,70.78
2023-02-27T07:15:59.862Z,70.56
2023-02-27T07:19:28.232Z,70.45
2023-02-27T07:22:54.788Z,70.57
2023-02-27T07:26:21.445Z,70.49
2023-02-27T07:29:48.508Z,70.58
2023-02-27T07:33:14.997Z,70.50
2023-02-27T07:36:42.305Z,70.49
2023-02-27T07:40:12.123Z,70.56
2023-02-27T07:43:39.003Z,70.40
2023-02-27T07:47:06.997Z,70.43
2023-02-27T07:50:34.053Z,70.39
2023-02-27T07:54:02.507Z,70.41
2023-02-27T07:57:30.312Z,70.49
2023-02-27T08:00:58.528Z,70.50
2023-02-27T08:04:25.544Z,70.29
2023-02-27T08:07:53.218Z,70.43
2023-02-27T08:11:20.121Z,70.31
2023-02-27T08:14:47.168Z,70.33
2023-02-27T08:18:14.327Z,70.47
2023-02-27T08:21:41.017Z,70.59
2023-02-27T08:25:11.134Z,70.48
2023-02-27T08:28:38.005Z,70.61
2023-02-27T08:32:05.950Z,70.68
2023-02-27T08:35:32.951Z,70.81
2023-02-27T08:38:59.754Z,70.62
2023-02-27T08:42:27.040Z,70.52
2023-02-27T08:45:54.266Z,70.61
2023-02-27T08:49:23.162Z,70.41
2023-02-27T08:52:50.356Z,70.07
2023-02-27T08:56:17.144Z,70.01
2023-02-27T08:59:43.765Z,69.94
2023-02-27T09:03:11.607Z,70.08
2023-02-27T09:06:39.335Z,70.33
2023-02-27T09:10:07.539Z,70.40
2023-02-27T09:13:34.831Z,70.22
2023-02-27T09:17:01.617Z,70.22
2023-02-27T09:20:28.762Z,70.01
2023-02-27T09:24:02.634Z,69.98
2023-02-27T09:27:34.001Z,69.88
2023-02-27T09:31:03.506Z,69.80
2023-02-27T09:34:31.079Z,69.56
2023-02-27T09:38:00.737Z,69.57
2023-02-27T09:41:43.660Z,69.35
2023-02-27T09:45:19.828Z,69.40
2023-02-27T09:48:52.822Z,69.34
2023-02-27T09:52:20.127Z,69.46
2023-02-27T09:55:48.514Z,69.49
2023-02-27T09:59:27.151Z,69.17
2023-02-27T10:03:02.440Z,69.19
2023-02-27T10:06:35.685Z,69.39
2023-02-27T10:10:20.712Z,69.16
2023-02-27T10:14:00.757Z,68.86
2023-02-27T10:17:30.651Z,68.96
2023-02-27T10:21:00.614Z,68.67
2023-02-27T10:24:32.072Z,68.12
2023-02-27T10:28:04.219Z,67.98
2023-02-27T10:31:36.272Z,67.28
2023-02-27T10:35:12.526Z,67.28
2023-02-27T10:38:44.682Z,67.43
2023-02-27T10:42:13.868Z,67.00
2023-02-27T10:45:40.531Z,67.63
2023-02-27T10:49:19.066Z,67.25
2023-02-27T10:52:53.930Z,67.16
2023-02-27T10:56:26.953Z,66.58
2023-02-27T10:59:54.408Z,66.60
2023-02-27T11:03:26.684Z,66.52
2023-02-27T11:06:56.327Z,66.31
2023-02-27T11:10:25.557Z,66.01
2023-02-27T11:13:52.267Z,65.74
2023-02-27T11:17:28.889Z,65.74
2023-02-27T11:20:56.919Z,65.46
2023-02-27T11:24:23.616Z,65.05
2023-02-27T11:27:52.381Z,64.89
2023-02-27T11:31:23.053Z,64.90
2023-02-27T11:34:53.638Z,64.69
2023-02-27T11:38:24.983Z,64.63
2023-02-27T11:41:53.053Z,64.26
2023-02-27T11:46:04.905Z,63.98
2023-02-27T11:49:35.678Z,64.37
2023-02-27T11:53:12.623Z,64.14
2023-02-27T11:56:43.586Z,64.10
2023-02-27T12:00:21.891Z,63.94
2023-02-27T12:03:52.724Z,63.72
2023-02-27T12:07:24.592Z,63.69
2023-02-27T12:11:12.343Z,63.79
2023-02-27T12:14:48.909Z,64.00
2023-02-27T12:18:23.312Z,63.38
2023-02-27T12:21:55.384Z,63.37
2023-02-27T12:25:33.600Z,63.18
2023-02-27T12:29:05.327Z,63.07
2023-02-27T12:32:43.142Z,62.88
2023-02-27T12:36:14.266Z,62.84
2023-02-27T12:39:43.594Z,62.81
2023-02-27T12:43:24.578Z,62.82
2023-02-27T12:47:02.166Z,62.88
2023-02-27T12:50:36.772Z,62.69
2023-02-27T12:54:24.966Z,62.44
2023-02-27T12:58:09.517Z,62.48
2023-02-27T13:01:47.187Z,62.35
2023-02-27T13:05:28.428Z,62.32
2023-02-27T13:09:09.084Z,62.18
2023-02-27T13:12:43.120Z,62.07
2023-02-27T13:16:15.464Z,61.72
2023-02-27T13:19:48.752Z,61.78
2023-02-27T13:23:20.625Z,61.66
2023-02-27T13:26:51.968Z,61.53
2023-02-27T13:30:28.318Z,61.30
2023-02-27T13:34:04.637Z,61.15
2023-02-27T13:37:54.046Z,60.79
2023-02-27T13:41:40.904Z,60.52
2023-02-27T13:45:29.824Z,60.61
2023-02-27T13:48:57.437Z,60.64
2023-02-27T13:52:33.066Z,60.75
2023-02-27T13:56:23.252Z,60.36
2023-02-27T13:59:58.403Z,60.14
2023-02-27T14:03:27.992Z,60.19
2023-02-27T14:07:01.325Z,59.76
2023-02-27T14:10:31.578Z,59.60
2023-02-27T14:14:09.189Z,59.39
2023-02-27T14:17:46.644Z,58.89
2023-02-27T14:21:13.692Z,58.39
2023-02-27T14:24:52.793Z,58.41
2023-02-27T14:28:28.493Z,58.56
2023-02-27T14:31:57.607Z,58.24
2023-02-27T14:35:25.695Z,58.07
2023-02-27T14:38:55.785Z,58.15
2023-02-27T14:42:46.181Z,57.99
2023-02-27T14:46:24.272Z,57.81
2023-02-27T14:49:52.983Z,58.13
2023-02-27T14:53:28.764Z,57.97
2023-02-27T14:57:00.983Z,57.98
2023-02-27T15:00:41.189Z,58.05
2023-02-27T15:04:17.169Z,57.80
2023-02-27T15:07:49.465Z,57.66
2023-02-27T15:11:21.302Z,57.64
2023-02-27T15:14:53.933Z,57.74
2023-02-27T15:18:24.516Z,57.66
2023-02-27T15:21:54.168Z,57.73
2023-02-27T15:25:47.613Z,57.65
2023-02-27T15:29:25.170Z,57.45
2023-02-27T15:32:55.638Z,57.52
2023-02-27T15:36:28.181Z,57.63
2023-02-27T15:39:56.693Z,57.54
2023-02-27T15:43:27.760Z,57.46
2023-02-27T15:46:56.036Z,57.49
2023-02-27T15:50:33.869Z,57.50
2023-02-27T15:54:02.114Z,57.43
2023-02-27T15:57:30.817Z,57.22
2023-02-27T16:01:02.727Z,57.10
2023-02-27T16:04:31.441Z,57.25
2023-02-27T16:07:58.079Z,57.58
2023-02-27T16:11:27.149Z,57.45
2023-02-27T16:14:55.024Z,57.18
2023-02-27T16:18:33.128Z,57.28
2023-02-27T16:22:20.070Z,57.67
2023-02-27T16:26:04.642Z,57.59
2023-02-27T16:29:37.178Z,57.74
2023-02-27T16:33:06.320Z,57.74
2023-02-27T16:36:35.042Z,57.76
2023-02-27T16:40:01.856Z,57.87
2023-02-27T16:43:29.580Z,57.79
2023-02-27T16:46:59.446Z,57.92
2023-02-27T16:50:33.250Z,57.85
2023-02-27T16:54:01.121Z,58.01
2023-02-27T16:57:28.458Z,58.00
2023-02-27T17:00:56.061Z,57.96
2023-02-27T17:04:25.826Z,57.82
2023-02-27T17:07:54.910Z,57.86
2023-02-27T17:11:21.544Z,57.79
2023-02-27T17:14:48.184Z,57.91
2023-02-27T17:18:15.207Z,58.16
2023-02-27T17:21:42.581Z,58.14
2023-02-27T17:25:11.370Z,58.20
2023-02-27T17:28:40.875Z,58.35
2023-02-27T17:32:08.156Z,58.37
2023-02-27T17:35:35.117Z,58.44
2023-02-27T17:39:03.873Z,58.37
2023-02-27T17:42:30.861Z,58.39
2023-02-27T17:45:58.018Z,58.52
2023-02-27T17:49:24.787Z,58.44
2023-02-27T17:52:51.574Z,58.69
2023-02-27T17:56:18.686Z,58.73
2023-02-27T17:59:45.930Z,58.85
2023-02-27T18:03:13.822Z,58.75
2023-02-27T18:06:41.185Z,58.87
2023-02-27T18:10:11.292Z,58.85
2023-02-27T18:13:39.061Z,58.98
2023-02-27T18:17:12.337Z,58.87
2023-02-27T18:20:40.838Z,59.01
2023-02-27T18:24:09.773Z,59.13
2023-02-27T18:27:36.656Z,59.19
2023-02-27T18:31:08.968Z,59.07
2023-02-27T18:34:36.300Z,58.96
2023-02-27T18:38:04.188Z,59.34
2023-02-27T18:41:33.386Z,59.47
2023-02-27T18:45:00.347Z,59.30
2023-02-27T18:48:35.014Z,59.48
2023-02-27T18:52:03.579Z,59.61
2023-02-27T18:55:32.559Z,59.68
2023-02-27T18:59:05.479Z,59.63
2023-02-27T19:02:31.908Z,59.67
2023-02-27T19:06:23.679Z,59.70
2023-02-27T19:09:51.958Z,59.93
2023-02-27T19:13:19.309Z,59.82
2023-02-27T19:16:47.322Z,59.88
2023-02-27T19:20:17.429Z,59.97
2023-02-27T19:23:44.816Z,60.04
2023-02-27T19:27:11.906Z,60.06
2023-02-27T19:30:41.457Z,60.14
2023-02-27T19:34:08.603Z,60.10
2023-02-27T19:37:35.830Z,60.21
2023-02-27T19:41:04.976Z,60.30
2023-02-27T19:44:32.263Z,60.54
2023-02-27T19:47:59.255Z,60.61
2023-02-27T19:51:27.110Z,60.64
2023-02-27T19:54:56.800Z,60.84
2023-02-27T19:58:23.733Z,60.89
2023-02-27T20:01:50.412Z,60.97
2023-02-27T20:05:19.559Z,61.04
2023-02-27T20:08:46.640Z,60.86
2023-02-27T20:12:14.464Z,60.79
2023-02-27T20:15:42.610Z,60.93
2023-02-27T20:19:11.075Z,60.80
2023-02-27T20:22:38.676Z,60.72
2023-02-27T20:26:24.690Z,60.69
2023-02-27T20:29:55.303Z,60.83
2023-02-27T20:33:22.627Z,60.97
2023-02-27T20:36:54.568Z,60.92
2023-02-27T20:40:23.116Z,60.88
2023-02-27T20:43:50.391Z,60.89
2023-02-27T20:47:17.647Z,60.99
2023-02-27T20:50:44.611Z,61.19
2023-02-27T20:54:16.811Z,61.12
2023-02-27T20:57:43.581Z,61.18
2023-02-27T21:01:13.553Z,61.23
2023-02-27T21:04:43.787Z,61.26
2023-02-27T21:08:10.832Z,61.24
2023-02-27T21:11:38.176Z,61.33
2023-02-27T21:15:05.980Z,61.45
2023-02-27T21:18:33.796Z,61.56
2023-02-27T21:22:01.816Z,61.59
2023-02-27T21:25:29.597Z,61.44
2023-02-27T21:29:05.362Z,61.71
2023-02-27T21:32:34.238Z,61.79
2023-02-27T21:36:01.043Z,61.59
2023-02-27T21:39:34.509Z,61.53
2023-02-27T21:43:01.540Z,61.64
2023-02-27T21:46:29.429Z,61.61
2023-02-27T21:49:59.599Z,61.73
2023-02-27T21:53:27.843Z,61.89
2023-02-27T21:56:54.882Z,61.82
2023-02-27T22:00:28.897Z,62.16
2023-02-27T22:03:59.414Z,62.28
2023-02-27T22:07:29.368Z,62.29
2023-02-27T22:11:01.356Z,62.20
2023-02-27T22:14:28.789Z,62.31
2023-02-27T22:17:57.078Z,62.43
2023-02-27T22:21:27.864Z,62.23
2023-02-27T22:24:55.758Z,62.34
2023-02-27T22:28:23.271Z,62.25
2023-02-27T22:31:50.055Z,62.27
2023-02-27T22:35:19.290Z,62.19
2023-02-27T22:38:46.591Z,62.17
2023-02-27T22:42:16.751Z,62.27
2023-02-27T22:45:50.353Z,62.24
2023-02-27T22:49:20.453Z,62.15
2023-02-27T22:52:48.006Z,62.26
2023-02-27T22:56:17.324Z,62.15
2023-02-27T22:59:47.453Z,62.23
2023-02-27T23:03:14.711Z,62.25
2023-02-27T23:06:44.161Z,62.34
2023-02-27T23:10:13.651Z,62.32
2023-02-27T23:13:41.490Z,62.38
2023-02-27T23:17:09.420Z,62.38
2023-02-27T23:20:43.133Z,62.53
2023-02-27T23:24:17.627Z,62.43
2023-02-27T23:27:45.487Z,62.51
2023-02-27T23:31:13.831Z,62.48
2023-02-27T23:34:49.556Z,62.58
2023-02-27T23:38:17.207Z,62.67
2023-02-27T23:41:43.787Z,62.94
2023-02-27T23:45:30.256Z,62.98
2023-02-27T23:48:57.814Z,62.90
2023-02-27T23:52:24.549Z,62.96
2023-02-27T23:55:52.147Z,63.10
2023-02-27T23:59:19.019Z,63.09
